Terminal Aerodrome Forecast
Issued by NWS Grand Forks, ND

Home | Current Version | Previous Version | Text Only | Print | Product List | Glossary On
Versions: 1 2 3 4 5 6 7 8 9 10 11 12 13 14 15 16 17
605
FTUS43 KFGF 270520
TAFFAR
TAF
KFAR 270520Z 2706/2806 23006KT P6SM SCT250
     FM271600 24008KT P6SM SCT250
     FM280000 26008KT P6SM BKN100=

USA.gov is the U.S. government's official web portal to all federal, state and local government web resources and services.